createdAt,value
2022-12-14T00:02:17.936Z,17.23
2022-12-14T00:05:03.601Z,18.27
2022-12-14T00:07:49.087Z,16.65
2022-12-14T00:10:35.944Z,17.48
2022-12-14T00:13:21.631Z,17.00
2022-12-14T00:16:18.137Z,15.93
2022-12-14T00:19:05.384Z,16.50
2022-12-14T00:21:51.596Z,16.80
2022-12-14T00:24:37.221Z,16.23
2022-12-14T00:27:22.579Z,14.45
2022-12-14T00:30:08.816Z,16.90
2022-12-14T00:32:54.682Z,16.00
2022-12-14T00:35:39.965Z,15.60
2022-12-14T00:38:26.116Z,15.07
2022-12-14T00:41:12.596Z,16.13
2022-12-14T00:43:58.142Z,15.50
2022-12-14T00:46:43.738Z,14.75
2022-12-14T00:49:29.064Z,14.18
2022-12-14T00:52:14.568Z,15.07
2022-12-14T00:55:00.369Z,14.20
2022-12-14T00:57:45.972Z,14.30
2022-12-14T01:00:32.345Z,14.18
2022-12-14T01:03:17.540Z,13.88
2022-12-14T01:06:03.660Z,16.13
2022-12-14T01:08:49.408Z,18.10
2022-12-14T01:11:35.389Z,15.07
2022-12-14T01:14:21.859Z,15.75
2022-12-14T01:17:07.032Z,16.20
2022-12-14T01:19:53.063Z,15.98
2022-12-14T01:22:38.760Z,17.20
2022-12-14T01:25:24.465Z,15.60
2022-12-14T01:28:09.601Z,16.63
2022-12-14T01:30:54.999Z,15.55
2022-12-14T01:33:40.690Z,15.45
2022-12-14T01:36:29.269Z,15.40
2022-12-14T01:39:15.901Z,15.70
2022-12-14T01:42:01.309Z,15.68
2022-12-14T01:44:54.881Z,15.65
2022-12-14T01:47:46.631Z,14.65
2022-12-14T01:50:39.540Z,15.38
2022-12-14T01:53:25.461Z,14.77
2022-12-14T01:56:11.230Z,14.85
2022-12-14T01:59:01.839Z,13.13
2022-12-14T02:01:48.328Z,15.73
2022-12-14T02:04:37.600Z,14.70
2022-12-14T02:07:24.439Z,17.77
2022-12-14T02:10:10.061Z,17.38
2022-12-14T02:13:14.733Z,20.23
2022-12-14T02:16:00.294Z,17.77
2022-12-14T02:18:45.891Z,18.35
2022-12-14T02:22:06.523Z,17.83
2022-12-14T02:25:39.157Z,18.05
2022-12-14T02:28:38.731Z,16.67
2022-12-14T02:31:36.294Z,17.75
2022-12-14T02:34:53.516Z,19.40
2022-12-14T02:38:07.035Z,15.88
2022-12-14T02:44:13.029Z,17.13
2022-12-14T02:47:28.066Z,17.75
2022-12-14T02:50:25.299Z,18.10
2022-12-14T02:53:13.705Z,17.55
2022-12-14T02:56:04.050Z,18.27
2022-12-14T02:58:51.887Z,16.65
2022-12-14T03:01:38.875Z,18.90
2022-12-14T03:04:24.559Z,17.80
2022-12-14T03:07:44.765Z,18.15
2022-12-14T03:10:50.070Z,16.05
2022-12-14T03:13:46.341Z,15.20
2022-12-14T03:16:42.927Z,15.43
2022-12-14T03:19:40.500Z,16.13
2022-12-14T03:22:36.802Z,15.48
2022-12-14T03:25:30.569Z,17.08
2022-12-14T03:28:30.455Z,17.10
2022-12-14T03:31:22.226Z,18.15
2022-12-14T03:34:13.092Z,14.15
2022-12-14T03:37:43.116Z,15.40
2022-12-14T03:40:49.875Z,13.82
2022-12-14T03:43:58.532Z,14.93
2022-12-14T03:46:57.634Z,14.43
2022-12-14T03:50:12.503Z,13.50
2022-12-14T03:53:11.019Z,14.15
2022-12-14T03:56:39.534Z,14.15
2022-12-14T03:59:45.455Z,14.18
2022-12-14T04:02:47.675Z,13.70
2022-12-14T04:05:48.552Z,14.82
2022-12-14T04:08:58.335Z,13.77
2022-12-14T04:12:09.468Z,14.25
2022-12-14T04:15:20.151Z,13.65
2022-12-14T04:18:28.650Z,14.48
2022-12-14T04:21:58.492Z,13.88
2022-12-14T04:25:25.452Z,11.85
2022-12-14T04:28:35.299Z,15.05
2022-12-14T04:31:24.955Z,14.68
2022-12-14T04:34:13.072Z,15.43
2022-12-14T04:37:03.416Z,12.57
2022-12-14T04:39:56.303Z,15.10
2022-12-14T04:42:54.153Z,15.77
2022-12-14T04:45:50.776Z,12.95
2022-12-14T04:48:48.756Z,16.13
2022-12-14T04:51:45.211Z,16.77
2022-12-14T04:54:53.313Z,14.70
2022-12-14T04:57:49.204Z,13.90
2022-12-14T05:00:40.903Z,14.55
2022-12-14T05:03:32.282Z,14.27
2022-12-14T05:06:24.035Z,16.35
2022-12-14T05:09:25.254Z,15.40
2022-12-14T05:12:20.953Z,13.48
2022-12-14T05:15:13.185Z,14.25
2022-12-14T05:18:03.866Z,14.15
2022-12-14T05:20:49.569Z,14.52
2022-12-14T05:23:34.815Z,13.80
2022-12-14T05:26:20.197Z,12.25
2022-12-14T05:29:05.790Z,13.73
2022-12-14T05:31:52.117Z,14.63
2022-12-14T05:34:37.179Z,13.48
2022-12-14T05:37:22.591Z,13.68
2022-12-14T05:40:08.744Z,14.10
2022-12-14T05:43:04.638Z,13.40
2022-12-14T05:45:50.115Z,12.18
2022-12-14T05:48:35.626Z,12.52
2022-12-14T05:51:20.981Z,12.27
2022-12-14T05:54:06.536Z,15.25
2022-12-14T05:56:52.541Z,13.50
2022-12-14T05:59:37.648Z,12.82
2022-12-14T06:02:23.247Z,11.98
2022-12-14T06:05:09.122Z,11.75
2022-12-14T06:07:54.349Z,14.68
2022-12-14T06:10:39.757Z,13.65
2022-12-14T06:13:25.398Z,11.98
2022-12-14T06:16:13.092Z,14.00
2022-12-14T06:19:00.612Z,13.80
2022-12-14T06:21:46.031Z,12.93
2022-12-14T06:24:31.732Z,12.35
2022-12-14T06:27:17.154Z,14.88
2022-12-14T06:30:02.915Z,13.93
2022-12-14T06:32:48.334Z,13.30
2022-12-14T06:35:33.645Z,15.02
2022-12-14T06:38:18.945Z,15.60
2022-12-14T06:41:08.368Z,16.27
2022-12-14T06:43:53.881Z,15.98
2022-12-14T06:46:39.864Z,15.98
2022-12-14T06:49:25.199Z,16.63
2022-12-14T06:52:10.721Z,15.32
2022-12-14T06:54:56.402Z,15.57
2022-12-14T06:57:41.980Z,16.85
2022-12-14T07:00:27.328Z,18.17
2022-12-14T07:03:12.791Z,17.48
2022-12-14T07:05:58.936Z,19.95
2022-12-14T07:08:45.062Z,18.42
2022-12-14T07:11:31.326Z,19.50
2022-12-14T07:14:16.835Z,17.60
2022-12-14T07:17:02.382Z,18.65
2022-12-14T07:19:49.012Z,18.02
2022-12-14T07:22:35.953Z,17.10
2022-12-14T07:25:21.453Z,19.00
2022-12-14T07:28:07.187Z,18.80
2022-12-14T07:30:57.238Z,18.40
2022-12-14T07:33:43.252Z,19.13
2022-12-14T07:36:30.195Z,19.05
2022-12-14T07:39:15.582Z,18.08
2022-12-14T07:42:01.018Z,17.77
2022-12-14T07:44:48.109Z,18.10
2022-12-14T07:47:33.624Z,19.58
2022-12-14T07:50:19.142Z,20.30
2022-12-14T07:53:04.777Z,18.63
2022-12-14T07:55:50.617Z,18.70
2022-12-14T07:58:36.852Z,18.88
2022-12-14T08:01:25.124Z,18.10
2022-12-14T08:04:14.509Z,18.65
2022-12-14T08:07:00.098Z,18.58
2022-12-14T08:09:45.580Z,16.27
2022-12-14T08:12:30.930Z,16.95
2022-12-14T08:15:16.393Z,18.73
2022-12-14T08:18:01.778Z,18.60
2022-12-14T08:20:53.384Z,18.15
2022-12-14T08:23:39.120Z,19.35
2022-12-14T08:26:31.553Z,21.23
2022-12-14T08:29:19.148Z,19.77
2022-12-14T08:32:04.945Z,19.98
2022-12-14T08:34:50.024Z,19.90
2022-12-14T08:37:35.430Z,21.63
2022-12-14T08:40:20.882Z,17.00
2022-12-14T08:43:07.368Z,18.20
2022-12-14T08:45:54.951Z,19.50
2022-12-14T08:48:40.123Z,18.55
2022-12-14T08:51:26.983Z,20.48
2022-12-14T08:54:12.867Z,18.83
2022-12-14T08:56:58.601Z,20.20
2022-12-14T09:00:01.180Z,20.90
2022-12-14T09:02:51.022Z,21.38
2022-12-14T09:05:36.413Z,20.17
2022-12-14T09:08:22.355Z,20.95
2022-12-14T09:11:12.570Z,18.85
2022-12-14T09:13:58.132Z,18.77
2022-12-14T09:16:43.325Z,19.38
2022-12-14T09:19:29.309Z,17.90
2022-12-14T09:22:14.734Z,17.48
2022-12-14T09:25:00.457Z,17.33
2022-12-14T09:27:45.536Z,17.60
2022-12-14T09:30:31.899Z,15.40
2022-12-14T09:33:17.370Z,18.05
2022-12-14T09:36:14.645Z,18.30
2022-12-14T09:38:59.818Z,16.52
2022-12-14T09:41:52.370Z,16.40
2022-12-14T09:44:51.976Z,17.88
2022-12-14T09:47:49.452Z,15.70
2022-12-14T09:50:35.755Z,15.27
2022-12-14T09:53:22.205Z,16.88
2022-12-14T09:56:10.629Z,16.23
2022-12-14T10:51:12.944Z,7.45
2022-12-14T10:54:01.919Z,8.80
2022-12-14T10:56:49.861Z,7.88
2022-12-14T10:59:43.801Z,11.10
2022-12-14T11:02:36.083Z,10.52
2022-12-14T11:05:40.291Z,10.75
2022-12-14T11:08:40.525Z,11.20
2022-12-14T11:11:26.790Z,14.73
2022-12-14T11:14:16.787Z,14.30
2022-12-14T11:17:02.870Z,15.13
2022-12-14T11:20:08.687Z,13.55
2022-12-14T11:22:55.789Z,15.48
2022-12-14T11:25:43.749Z,15.40
2022-12-14T11:28:37.383Z,15.10
2022-12-14T11:31:34.679Z,18.67
2022-12-14T11:34:41.196Z,18.00
2022-12-14T11:37:31.648Z,17.15
2022-12-14T11:40:22.614Z,19.58
2022-12-14T11:43:35.012Z,17.48
2022-12-14T11:46:20.690Z,19.05
2022-12-14T11:49:21.142Z,18.10
2022-12-14T11:52:20.217Z,19.83
2022-12-14T11:55:26.718Z,21.00
2022-12-14T11:58:22.863Z,20.77
2022-12-14T12:01:24.754Z,20.50
2022-12-14T12:04:15.045Z,18.43
2022-12-14T12:07:13.260Z,22.05
2022-12-14T12:10:23.773Z,19.23
2022-12-14T12:13:24.191Z,17.55
2022-12-14T12:16:25.322Z,22.13
2022-12-14T12:19:25.957Z,18.77
2022-12-14T12:22:13.818Z,17.55
2022-12-14T12:28:24.536Z,18.10
2022-12-14T12:31:18.589Z,17.10
2022-12-14T12:34:13.657Z,17.10
2022-12-14T12:37:25.735Z,19.02
2022-12-14T12:40:36.359Z,18.27
2022-12-14T12:43:54.318Z,20.88
2022-12-14T12:47:22.437Z,18.73
2022-12-14T12:50:07.245Z,18.48
2022-12-14T12:53:14.615Z,16.60
2022-12-14T12:56:23.800Z,17.85
2022-12-14T12:59:19.939Z,17.95
2022-12-14T13:02:31.728Z,15.57
2022-12-14T13:05:45.744Z,18.58
2022-12-14T13:08:31.515Z,14.98
2022-12-14T13:11:27.370Z,16.80
2022-12-14T13:14:35.708Z,16.38
2022-12-14T13:17:33.508Z,13.02
2022-12-14T13:20:27.359Z,12.07
2022-12-14T13:23:43.595Z,14.82
2022-12-14T13:26:57.408Z,12.82
2022-12-14T13:29:53.756Z,10.85
2022-12-14T13:32:57.738Z,10.18
2022-12-14T13:36:10.291Z,10.80
2022-12-14T13:39:37.324Z,10.37
2022-12-14T13:42:37.206Z,9.65
2022-12-14T13:45:30.191Z,9.63
2022-12-14T13:48:24.959Z,13.13
2022-12-14T13:51:29.764Z,13.23
2022-12-14T13:54:29.185Z,10.88
2022-12-14T13:57:23.219Z,8.23
2022-12-14T14:00:47.334Z,9.00
2022-12-14T14:03:35.904Z,9.25
2022-12-14T14:06:30.719Z,11.00
2022-12-14T14:09:34.325Z,8.88
2022-12-14T14:12:38.650Z,9.25
2022-12-14T14:15:32.700Z,8.63
2022-12-14T14:18:22.483Z,9.18
2022-12-14T14:21:13.620Z,9.88
2022-12-14T14:24:06.408Z,9.00
2022-12-14T14:27:10.521Z,8.32
2022-12-14T14:29:57.884Z,8.32
2022-12-14T14:32:43.511Z,8.07
2022-12-14T14:35:37.302Z,7.03
2022-12-14T14:38:29.024Z,6.50
2022-12-14T14:41:25.657Z,8.77
2022-12-14T14:44:33.423Z,9.05
2022-12-14T14:47:33.079Z,7.03
2022-12-14T14:50:25.885Z,5.65
2022-12-14T14:56:36.947Z,6.82
2022-12-14T14:59:22.754Z,8.40
2022-12-14T15:02:30.121Z,8.93
2022-12-14T15:08:39.305Z,8.70
2022-12-14T15:11:28.024Z,9.63
2022-12-14T15:14:43.372Z,10.55
2022-12-14T15:17:32.126Z,10.95
2022-12-14T15:20:29.622Z,11.68
2022-12-14T15:23:15.195Z,10.02
2022-12-14T15:26:02.598Z,10.98
2022-12-14T15:28:58.073Z,11.80
2022-12-14T15:31:44.664Z,12.15
2022-12-14T15:34:29.993Z,12.85
2022-12-14T15:37:36.527Z,12.85
2022-12-14T15:40:25.222Z,18.17
2022-12-14T15:43:18.531Z,12.38
2022-12-14T15:46:04.100Z,14.77
2022-12-14T15:48:59.951Z,12.40
2022-12-14T15:51:45.263Z,13.85
2022-12-14T15:54:31.071Z,14.48
2022-12-14T15:57:19.142Z,16.00
2022-12-14T16:00:04.889Z,13.55
2022-12-14T16:02:50.327Z,14.30
2022-12-14T16:05:36.320Z,14.07
2022-12-14T16:08:22.505Z,13.75
2022-12-14T16:11:26.878Z,13.52
2022-12-14T16:14:45.301Z,13.80
2022-12-14T16:17:34.119Z,14.73
2022-12-14T16:20:23.454Z,13.48
2022-12-14T16:23:14.929Z,13.80
2022-12-14T16:26:03.220Z,14.02
2022-12-14T16:28:48.420Z,13.65
2022-12-14T16:31:34.278Z,13.60
2022-12-14T16:34:23.546Z,15.32
2022-12-14T16:37:32.624Z,15.75
2022-12-14T16:40:39.652Z,16.10
2022-12-14T16:43:37.452Z,14.38
2022-12-14T16:46:23.299Z,14.52
2022-12-14T16:49:21.135Z,13.95
2022-12-14T16:52:09.760Z,14.52
2022-12-14T16:55:13.277Z,13.15
2022-12-14T16:57:58.791Z,13.25
2022-12-14T17:01:00.616Z,13.63
2022-12-14T17:03:58.913Z,12.23
2022-12-14T17:06:53.171Z,13.07
2022-12-14T17:09:39.729Z,13.82
2022-12-14T17:12:26.375Z,13.55
2022-12-14T17:15:19.985Z,12.50
2022-12-14T17:18:07.895Z,13.20
2022-12-14T17:20:53.719Z,14.15
2022-12-14T17:23:41.646Z,13.60
2022-12-14T17:26:30.781Z,14.80
2022-12-14T17:29:23.250Z,14.48
2022-12-14T17:32:13.532Z,16.40
2022-12-14T17:35:00.083Z,15.57
2022-12-14T17:37:45.972Z,14.02
2022-12-14T17:40:31.196Z,12.23
2022-12-14T17:43:20.892Z,14.50
2022-12-14T17:46:06.330Z,14.48
2022-12-14T17:48:52.050Z,13.65
2022-12-14T17:51:41.751Z,14.40
2022-12-14T17:54:29.177Z,14.60
2022-12-14T17:57:17.140Z,13.45
2022-12-14T18:00:20.819Z,13.50
2022-12-14T18:03:07.221Z,11.10
2022-12-14T18:05:53.429Z,14.15
2022-12-14T18:08:38.503Z,13.75
2022-12-14T18:11:26.990Z,15.10
2022-12-14T18:14:15.506Z,12.48
2022-12-14T18:17:01.127Z,14.07
2022-12-14T18:19:47.918Z,11.23
2022-12-14T18:22:35.052Z,10.60
2022-12-14T18:25:40.892Z,12.18
2022-12-14T18:28:26.343Z,12.35
2022-12-14T18:31:37.205Z,12.40
2022-12-14T18:34:22.848Z,13.23
2022-12-14T18:37:08.614Z,14.38
2022-12-14T18:39:54.148Z,13.90
2022-12-14T18:42:39.447Z,13.90
2022-12-14T18:45:28.371Z,14.27
2022-12-14T18:48:13.687Z,14.93
2022-12-14T18:50:59.391Z,13.93
2022-12-14T18:53:44.716Z,13.35
2022-12-14T18:56:30.408Z,14.38
2022-12-14T18:59:15.653Z,15.50
2022-12-14T19:02:02.058Z,12.75
2022-12-14T19:04:51.385Z,16.48
2022-12-14T19:07:36.916Z,13.70
2022-12-14T19:10:25.146Z,11.75
2022-12-14T19:13:26.165Z,12.40
2022-12-14T19:16:12.244Z,11.50
2022-12-14T19:18:57.782Z,13.23
2022-12-14T19:21:42.953Z,12.90
2022-12-14T19:24:28.812Z,11.70
2022-12-14T19:27:14.137Z,11.77
2022-12-14T19:29:59.839Z,11.00
2022-12-14T19:32:44.999Z,10.63
2022-12-14T19:35:34.523Z,10.68
2022-12-14T19:38:20.060Z,11.90
2022-12-14T19:41:12.372Z,11.68
2022-12-14T19:43:58.027Z,12.55
2022-12-14T19:46:43.872Z,10.88
2022-12-14T19:49:29.390Z,12.38
2022-12-14T19:52:14.872Z,11.93
2022-12-14T19:55:03.040Z,12.43
2022-12-14T19:57:49.078Z,15.40
2022-12-14T20:00:34.446Z,14.60
2022-12-14T20:03:20.275Z,15.38
2022-12-14T20:06:06.513Z,13.95
2022-12-14T20:08:55.998Z,12.25
2022-12-14T20:11:42.404Z,13.43
2022-12-14T20:14:27.960Z,13.52
2022-12-14T20:17:13.431Z,13.50
2022-12-14T20:19:59.260Z,16.20
2022-12-14T20:22:44.335Z,14.48
2022-12-14T20:25:31.488Z,13.48
2022-12-14T20:28:16.824Z,13.02
2022-12-14T20:31:06.154Z,13.80
2022-12-14T20:33:52.466Z,13.82
2022-12-14T20:36:38.034Z,12.50
2022-12-14T20:39:23.391Z,12.75
2022-12-14T20:42:09.125Z,10.77
2022-12-14T20:44:54.655Z,11.70
2022-12-14T20:47:40.259Z,10.70
2022-12-14T20:50:25.732Z,11.40
2022-12-14T20:53:11.112Z,10.00
2022-12-14T20:55:56.868Z,10.20
2022-12-14T20:58:45.996Z,8.63
2022-12-14T21:01:32.017Z,8.30
2022-12-14T21:04:17.964Z,8.85
2022-12-14T21:07:03.362Z,8.40
2022-12-14T21:09:49.034Z,9.18
2022-12-14T21:12:34.816Z,9.63
2022-12-14T21:15:20.100Z,9.95
2022-12-14T21:18:05.627Z,8.18
2022-12-14T21:20:51.241Z,9.30
2022-12-14T21:23:36.524Z,7.60
2022-12-14T21:26:22.191Z,9.80
2022-12-14T21:29:11.206Z,8.40
2022-12-14T21:31:56.882Z,8.15
2022-12-14T21:34:42.936Z,7.95
2022-12-14T21:37:28.364Z,8.50
2022-12-14T21:40:33.676Z,7.70
2022-12-14T21:43:19.719Z,8.38
2022-12-14T21:46:05.173Z,9.18
2022-12-14T21:48:50.578Z,9.77
2022-12-14T21:51:36.218Z,11.93
2022-12-14T21:54:21.775Z,11.70
2022-12-14T21:57:25.712Z,14.57
2022-12-14T22:00:11.505Z,11.45
2022-12-14T22:02:59.952Z,12.23
2022-12-14T22:05:45.629Z,10.57
2022-12-14T22:08:31.231Z,9.10
2022-12-14T22:11:17.064Z,11.27
2022-12-14T22:14:02.618Z,10.93
2022-12-14T22:16:49.613Z,9.73
2022-12-14T22:19:35.703Z,9.93
2022-12-14T22:22:21.283Z,8.77
2022-12-14T22:25:07.174Z,10.75
2022-12-14T22:27:52.788Z,11.52
2022-12-14T22:30:38.336Z,11.23
2022-12-14T22:33:23.703Z,11.93
2022-12-14T22:36:09.313Z,11.70
2022-12-14T22:38:58.943Z,14.38
2022-12-14T22:41:44.351Z,13.65
2022-12-14T22:44:29.670Z,16.33
2022-12-14T22:47:14.993Z,13.48
2022-12-14T22:50:00.799Z,15.23
2022-12-14T22:52:49.583Z,14.13
2022-12-14T22:55:38.607Z,14.30
2022-12-14T22:58:24.565Z,17.05
2022-12-14T23:01:10.658Z,15.00
2022-12-14T23:03:56.224Z,15.45
2022-12-14T23:06:42.575Z,15.23
2022-12-14T23:09:46.728Z,13.43
2022-12-14T23:12:50.855Z,13.40
2022-12-14T23:15:54.505Z,14.43
2022-12-14T23:18:58.652Z,12.70
2022-12-14T23:22:02.500Z,15.55
2022-12-14T23:25:06.792Z,13.57
2022-12-14T23:28:10.500Z,12.63
2022-12-14T23:31:17.735Z,12.07
2022-12-14T23:34:21.676Z,13.98
2022-12-14T23:37:25.647Z,13.43
2022-12-14T23:40:30.251Z,13.77
2022-12-14T23:43:36.100Z,12.70
2022-12-14T23:46:39.994Z,13.52
2022-12-14T23:49:44.177Z,12.85
2022-12-14T23:52:47.987Z,13.30
2022-12-14T23:55:52.144Z,12.68
2022-12-14T23:58:55.856Z,11.80
